sensor_id;sensor_type;location;lat;lon;timestamp;temperature;humidity
40516;DHT22;26216;53.724;9.898;2023-02-07T00:00:09;1.10;99.90
40516;DHT22;26216;53.724;9.898;2023-02-07T00:02:35;1.10;99.90
40516;DHT22;26216;53.724;9.898;2023-02-07T00:05:01;1.10;99.90
40516;DHT22;26216;53.724;9.898;2023-02-07T00:07:26;1.10;99.90
40516;DHT22;26216;53.724;9.898;2023-02-07T00:09:52;1.00;99.90
40516;DHT22;26216;53.724;9.898;2023-02-07T00:12:18;1.00;99.90
40516;DHT22;26216;53.724;9.898;2023-02-07T00:14:44;1.00;99.90
40516;DHT22;26216;53.724;9.898;2023-02-07T00:17:10;1.00;99.90
40516;DHT22;26216;53.724;9.898;2023-02-07T00:19:36;1.00;99.90
40516;DHT22;26216;53.724;9.898;2023-02-07T00:22:02;1.00;99.90
40516;DHT22;26216;53.724;9.898;2023-02-07T00:24:28;1.00;99.90
40516;DHT22;26216;53.724;9.898;2023-02-07T00:26:54;1.00;99.90
40516;DHT22;26216;53.724;9.898;2023-02-07T00:29:20;1.00;99.90
40516;DHT22;26216;53.724;9.898;2023-02-07T00:31:46;1.00;99.90
40516;DHT22;26216;53.724;9.898;2023-02-07T00:34:13;1.00;99.90
40516;DHT22;26216;53.724;9.898;2023-02-07T00:36:40;1.00;99.90
40516;DHT22;26216;53.724;9.898;2023-02-07T00:39:14;0.90;99.90
40516;DHT22;26216;53.724;9.898;2023-02-07T00:41:40;0.90;99.90
40516;DHT22;26216;53.724;9.898;2023-02-07T00:44:07;0.90;99.90
40516;DHT22;26216;53.724;9.898;2023-02-07T00:46:34;0.90;99.90
40516;DHT22;26216;53.724;9.898;2023-02-07T00:49:00;0.90;99.90
40516;DHT22;26216;53.724;9.898;2023-02-07T00:51:26;0.90;99.90
40516;DHT22;26216;53.724;9.898;2023-02-07T00:53:53;0.90;99.90
40516;DHT22;26216;53.724;9.898;2023-02-07T00:56:20;0.90;99.90
40516;DHT22;26216;53.724;9.898;2023-02-07T00:58:47;0.90;99.90
40516;DHT22;26216;53.724;9.898;2023-02-07T01:01:13;0.90;99.90
40516;DHT22;26216;53.724;9.898;2023-02-07T01:03:39;0.90;99.90
40516;DHT22;26216;53.724;9.898;2023-02-07T01:06:06;0.80;99.90
40516;DHT22;26216;53.724;9.898;2023-02-07T01:08:32;0.80;99.90
40516;DHT22;26216;53.724;9.898;2023-02-07T01:11:02;0.80;99.90
40516;DHT22;26216;53.724;9.898;2023-02-07T01:13:28;0.80;99.90
40516;DHT22;26216;53.724;9.898;2023-02-07T01:15:54;0.80;99.90
40516;DHT22;26216;53.724;9.898;2023-02-07T01:18:19;0.80;99.90
40516;DHT22;26216;53.724;9.898;2023-02-07T01:20:45;0.80;99.90
40516;DHT22;26216;53.724;9.898;2023-02-07T01:23:12;0.70;99.90
40516;DHT22;26216;53.724;9.898;2023-02-07T01:25:40;0.70;99.90
40516;DHT22;26216;53.724;9.898;2023-02-07T01:28:08;0.70;99.90
40516;DHT22;26216;53.724;9.898;2023-02-07T01:30:34;0.70;99.90
40516;DHT22;26216;53.724;9.898;2023-02-07T01:33:00;0.70;99.90
40516;DHT22;26216;53.724;9.898;2023-02-07T01:35:26;0.70;99.90
40516;DHT22;26216;53.724;9.898;2023-02-07T01:37:52;0.70;99.90
40516;DHT22;26216;53.724;9.898;2023-02-07T01:40:18;0.70;99.90
40516;DHT22;26216;53.724;9.898;2023-02-07T01:42:44;0.70;99.90
40516;DHT22;26216;53.724;9.898;2023-02-07T01:45:29;0.60;99.90
40516;DHT22;26216;53.724;9.898;2023-02-07T01:48:01;0.60;99.90
40516;DHT22;26216;53.724;9.898;2023-02-07T01:50:27;0.60;99.90
40516;DHT22;26216;53.724;9.898;2023-02-07T01:52:54;0.60;99.90
40516;DHT22;26216;53.724;9.898;2023-02-07T01:55:27;0.60;99.90
40516;DHT22;26216;53.724;9.898;2023-02-07T01:57:54;0.60;99.90
40516;DHT22;26216;53.724;9.898;2023-02-07T02:00:20;0.60;99.90
40516;DHT22;26216;53.724;9.898;2023-02-07T02:02:46;0.60;99.90
40516;DHT22;26216;53.724;9.898;2023-02-07T02:05:12;0.60;99.90
40516;DHT22;26216;53.724;9.898;2023-02-07T02:07:39;0.60;99.90
40516;DHT22;26216;53.724;9.898;2023-02-07T02:10:17;0.60;99.90
40516;DHT22;26216;53.724;9.898;2023-02-07T02:16:01;0.50;99.90
40516;DHT22;26216;53.724;9.898;2023-02-07T02:18:40;0.50;99.90
40516;DHT22;26216;53.724;9.898;2023-02-07T02:24:34;0.50;99.90
40516;DHT22;26216;53.724;9.898;2023-02-07T02:38:37;0.40;99.90
40516;DHT22;26216;53.724;9.898;2023-02-07T02:41:14;0.40;99.90
40516;DHT22;26216;53.724;9.898;2023-02-07T02:43:45;0.40;99.90
40516;DHT22;26216;53.724;9.898;2023-02-07T02:46:19;0.40;99.90
40516;DHT22;26216;53.724;9.898;2023-02-07T02:48:45;0.40;99.90
40516;DHT22;26216;53.724;9.898;2023-02-07T02:51:11;0.40;99.90
40516;DHT22;26216;53.724;9.898;2023-02-07T02:53:37;0.40;99.90
40516;DHT22;26216;53.724;9.898;2023-02-07T02:56:12;0.40;99.90
40516;DHT22;26216;53.724;9.898;2023-02-07T03:04:12;0.40;99.90
40516;DHT22;26216;53.724;9.898;2023-02-07T03:09:24;0.30;99.90
40516;DHT22;26216;53.724;9.898;2023-02-07T03:11:58;0.30;99.90
40516;DHT22;26216;53.724;9.898;2023-02-07T03:17:30;0.30;99.90
40516;DHT22;26216;53.724;9.898;2023-02-07T03:20:19;0.30;99.90
40516;DHT22;26216;53.724;9.898;2023-02-07T03:22:46;0.30;99.90
40516;DHT22;26216;53.724;9.898;2023-02-07T03:25:14;0.20;99.90
40516;DHT22;26216;53.724;9.898;2023-02-07T03:27:41;0.20;99.90
40516;DHT22;26216;53.724;9.898;2023-02-07T03:30:12;0.20;99.90
40516;DHT22;26216;53.724;9.898;2023-02-07T03:32:42;0.20;99.90
40516;DHT22;26216;53.724;9.898;2023-02-07T03:37:58;0.20;99.90
40516;DHT22;26216;53.724;9.898;2023-02-07T03:40:28;0.10;99.90
40516;DHT22;26216;53.724;9.898;2023-02-07T03:43:03;0.10;99.90
40516;DHT22;26216;53.724;9.898;2023-02-07T03:45:30;0.10;99.90
40516;DHT22;26216;53.724;9.898;2023-02-07T03:47:56;0.10;99.90
40516;DHT22;26216;53.724;9.898;2023-02-07T03:50:24;0.10;99.90
40516;DHT22;26216;53.724;9.898;2023-02-07T03:52:50;0.10;99.90
40516;DHT22;26216;53.724;9.898;2023-02-07T03:55:16;0.10;99.90
40516;DHT22;26216;53.724;9.898;2023-02-07T03:57:42;0.10;99.90
40516;DHT22;26216;53.724;9.898;2023-02-07T04:00:09;0.00;99.90
40516;DHT22;26216;53.724;9.898;2023-02-07T04:02:35;0.00;99.90
40516;DHT22;26216;53.724;9.898;2023-02-07T04:05:01;0.00;99.90
40516;DHT22;26216;53.724;9.898;2023-02-07T04:07:27;0.00;99.90
40516;DHT22;26216;53.724;9.898;2023-02-07T04:09:53;0.00;99.90
40516;DHT22;26216;53.724;9.898;2023-02-07T04:12:18;0.00;99.90
40516;DHT22;26216;53.724;9.898;2023-02-07T04:14:44;-0.10;99.90
40516;DHT22;26216;53.724;9.898;2023-02-07T04:17:10;-0.10;99.90
40516;DHT22;26216;53.724;9.898;2023-02-07T04:19:36;-0.10;99.90
40516;DHT22;26216;53.724;9.898;2023-02-07T04:22:02;-0.20;99.90
40516;DHT22;26216;53.724;9.898;2023-02-07T04:24:28;-0.10;99.90
40516;DHT22;26216;53.724;9.898;2023-02-07T04:26:59;-0.20;99.90
40516;DHT22;26216;53.724;9.898;2023-02-07T04:29:25;-0.20;99.90
40516;DHT22;26216;53.724;9.898;2023-02-07T04:31:51;-0.20;99.90
40516;DHT22;26216;53.724;9.898;2023-02-07T04:34:17;-0.20;99.90
40516;DHT22;26216;53.724;9.898;2023-02-07T04:36:43;-0.20;99.90
40516;DHT22;26216;53.724;9.898;2023-02-07T04:39:09;-0.20;99.90
40516;DHT22;26216;53.724;9.898;2023-02-07T04:41:34;-0.20;99.90
40516;DHT22;26216;53.724;9.898;2023-02-07T04:44:00;-0.20;99.90
40516;DHT22;26216;53.724;9.898;2023-02-07T04:46:26;-0.20;99.90
40516;DHT22;26216;53.724;9.898;2023-02-07T04:48:53;-0.20;99.90
40516;DHT22;26216;53.724;9.898;2023-02-07T04:51:19;-0.30;99.90
40516;DHT22;26216;53.724;9.898;2023-02-07T04:53:44;-0.30;99.90
40516;DHT22;26216;53.724;9.898;2023-02-07T04:56:10;-0.30;99.90
40516;DHT22;26216;53.724;9.898;2023-02-07T04:58:36;-0.30;99.90
40516;DHT22;26216;53.724;9.898;2023-02-07T05:01:02;-0.30;99.90
40516;DHT22;26216;53.724;9.898;2023-02-07T05:03:28;-0.30;99.90
40516;DHT22;26216;53.724;9.898;2023-02-07T05:05:54;-0.30;99.90
40516;DHT22;26216;53.724;9.898;2023-02-07T05:08:20;-0.30;99.90
40516;DHT22;26216;53.724;9.898;2023-02-07T05:10:50;-0.30;99.90
40516;DHT22;26216;53.724;9.898;2023-02-07T05:13:16;-0.40;99.90
40516;DHT22;26216;53.724;9.898;2023-02-07T05:15:42;-0.40;99.90
40516;DHT22;26216;53.724;9.898;2023-02-07T05:18:07;-0.40;99.90
40516;DHT22;26216;53.724;9.898;2023-02-07T05:20:33;-0.40;99.90
40516;DHT22;26216;53.724;9.898;2023-02-07T05:22:59;-0.40;99.90
40516;DHT22;26216;53.724;9.898;2023-02-07T05:25:25;-0.40;99.90
40516;DHT22;26216;53.724;9.898;2023-02-07T05:27:51;-0.40;99.90
40516;DHT22;26216;53.724;9.898;2023-02-07T05:30:18;-0.50;99.90
40516;DHT22;26216;53.724;9.898;2023-02-07T05:32:44;-0.50;99.90
40516;DHT22;26216;53.724;9.898;2023-02-07T05:35:30;-0.50;99.90
40516;DHT22;26216;53.724;9.898;2023-02-07T05:37:55;-0.50;99.90
40516;DHT22;26216;53.724;9.898;2023-02-07T05:40:21;-0.50;99.90
40516;DHT22;26216;53.724;9.898;2023-02-07T05:42:47;-0.50;99.90
40516;DHT22;26216;53.724;9.898;2023-02-07T05:45:13;-0.60;99.90
40516;DHT22;26216;53.724;9.898;2023-02-07T05:47:39;-0.60;99.90
40516;DHT22;26216;53.724;9.898;2023-02-07T05:50:05;-0.60;99.90
40516;DHT22;26216;53.724;9.898;2023-02-07T05:52:31;-0.60;99.90
40516;DHT22;26216;53.724;9.898;2023-02-07T05:54:57;-0.60;99.90
40516;DHT22;26216;53.724;9.898;2023-02-07T05:57:23;-0.60;99.90
40516;DHT22;26216;53.724;9.898;2023-02-07T05:59:48;-0.60;99.90
40516;DHT22;26216;53.724;9.898;2023-02-07T06:02:14;-0.60;99.90
40516;DHT22;26216;53.724;9.898;2023-02-07T06:04:40;-0.60;99.90
40516;DHT22;26216;53.724;9.898;2023-02-07T06:07:06;-0.60;99.90
40516;DHT22;26216;53.724;9.898;2023-02-07T06:09:32;-0.60;99.90
40516;DHT22;26216;53.724;9.898;2023-02-07T06:11:57;-0.60;99.90
40516;DHT22;26216;53.724;9.898;2023-02-07T06:14:23;-0.60;99.90
40516;DHT22;26216;53.724;9.898;2023-02-07T06:16:49;-0.60;99.90
40516;DHT22;26216;53.724;9.898;2023-02-07T06:19:15;-0.60;99.90
40516;DHT22;26216;53.724;9.898;2023-02-07T06:21:41;-0.60;99.90
40516;DHT22;26216;53.724;9.898;2023-02-07T06:24:07;-0.60;99.90
40516;DHT22;26216;53.724;9.898;2023-02-07T06:26:34;-0.70;99.90
40516;DHT22;26216;53.724;9.898;2023-02-07T06:29:00;-0.70;99.90
40516;DHT22;26216;53.724;9.898;2023-02-07T06:31:25;-0.60;99.90
40516;DHT22;26216;53.724;9.898;2023-02-07T06:33:51;-0.60;99.90
40516;DHT22;26216;53.724;9.898;2023-02-07T06:36:17;-0.70;99.90
40516;DHT22;26216;53.724;9.898;2023-02-07T06:38:43;-0.70;99.90
40516;DHT22;26216;53.724;9.898;2023-02-07T06:41:09;-0.70;99.90
40516;DHT22;26216;53.724;9.898;2023-02-07T06:43:37;-0.70;99.90
40516;DHT22;26216;53.724;9.898;2023-02-07T06:46:03;-0.60;99.90
40516;DHT22;26216;53.724;9.898;2023-02-07T06:48:29;-0.70;99.90
40516;DHT22;26216;53.724;9.898;2023-02-07T06:50:54;-0.70;99.90
40516;DHT22;26216;53.724;9.898;2023-02-07T06:53:20;-0.70;99.90
40516;DHT22;26216;53.724;9.898;2023-02-07T06:55:46;-0.70;99.90
40516;DHT22;26216;53.724;9.898;2023-02-07T06:58:13;-0.70;99.90
40516;DHT22;26216;53.724;9.898;2023-02-07T07:00:39;-0.70;99.90
40516;DHT22;26216;53.724;9.898;2023-02-07T07:03:05;-0.70;99.90
40516;DHT22;26216;53.724;9.898;2023-02-07T07:05:31;-0.70;99.90
40516;DHT22;26216;53.724;9.898;2023-02-07T07:07:57;-0.70;99.90
40516;DHT22;26216;53.724;9.898;2023-02-07T07:10:24;-0.70;99.90
40516;DHT22;26216;53.724;9.898;2023-02-07T07:12:49;-0.70;99.90
40516;DHT22;26216;53.724;9.898;2023-02-07T07:15:15;-0.70;99.90
40516;DHT22;26216;53.724;9.898;2023-02-07T07:17:41;-0.70;99.90
40516;DHT22;26216;53.724;9.898;2023-02-07T07:20:08;-0.70;99.90
40516;DHT22;26216;53.724;9.898;2023-02-07T07:22:34;-0.70;99.90
40516;DHT22;26216;53.724;9.898;2023-02-07T07:25:00;-0.60;99.90
40516;DHT22;26216;53.724;9.898;2023-02-07T07:27:26;-0.60;99.90
40516;DHT22;26216;53.724;9.898;2023-02-07T07:29:52;-0.60;99.90
40516;DHT22;26216;53.724;9.898;2023-02-07T07:32:18;-0.60;99.90
40516;DHT22;26216;53.724;9.898;2023-02-07T07:34:44;-0.60;99.90
40516;DHT22;26216;53.724;9.898;2023-02-07T07:37:11;-0.50;99.90
40516;DHT22;26216;53.724;9.898;2023-02-07T07:39:37;-0.50;99.90
40516;DHT22;26216;53.724;9.898;2023-02-07T07:42:03;-0.50;99.90
40516;DHT22;26216;53.724;9.898;2023-02-07T07:44:29;-0.50;99.90
40516;DHT22;26216;53.724;9.898;2023-02-07T07:46:55;-0.50;99.90
40516;DHT22;26216;53.724;9.898;2023-02-07T07:49:20;-0.40;99.90
40516;DHT22;26216;53.724;9.898;2023-02-07T07:51:46;-0.40;99.90
40516;DHT22;26216;53.724;9.898;2023-02-07T07:54:12;-0.40;99.90
40516;DHT22;26216;53.724;9.898;2023-02-07T07:56:38;-0.30;99.90
40516;DHT22;26216;53.724;9.898;2023-02-07T07:59:04;-0.30;99.90
40516;DHT22;26216;53.724;9.898;2023-02-07T08:01:30;-0.30;99.90
40516;DHT22;26216;53.724;9.898;2023-02-07T08:03:56;-0.20;99.90
40516;DHT22;26216;53.724;9.898;2023-02-07T08:06:22;-0.20;99.90
40516;DHT22;26216;53.724;9.898;2023-02-07T08:08:47;-0.10;99.90
40516;DHT22;26216;53.724;9.898;2023-02-07T08:11:13;-0.10;99.90
40516;DHT22;26216;53.724;9.898;2023-02-07T08:13:39;-0.10;99.90
40516;DHT22;26216;53.724;9.898;2023-02-07T08:16:06;0.00;99.90
40516;DHT22;26216;53.724;9.898;2023-02-07T08:18:33;0.10;99.90
40516;DHT22;26216;53.724;9.898;2023-02-07T08:21:00;0.10;99.90
40516;DHT22;26216;53.724;9.898;2023-02-07T08:23:26;0.20;99.90
40516;DHT22;26216;53.724;9.898;2023-02-07T08:25:51;0.20;99.90
40516;DHT22;26216;53.724;9.898;2023-02-07T08:28:20;0.30;99.90
40516;DHT22;26216;53.724;9.898;2023-02-07T08:30:46;0.30;99.90
40516;DHT22;26216;53.724;9.898;2023-02-07T08:33:13;0.40;99.90
40516;DHT22;26216;53.724;9.898;2023-02-07T08:35:40;0.40;99.90
40516;DHT22;26216;53.724;9.898;2023-02-07T08:38:06;0.50;99.90
40516;DHT22;26216;53.724;9.898;2023-02-07T08:40:33;0.60;99.90
40516;DHT22;26216;53.724;9.898;2023-02-07T08:42:59;0.60;99.90
40516;DHT22;26216;53.724;9.898;2023-02-07T08:45:25;0.70;99.90
40516;DHT22;26216;53.724;9.898;2023-02-07T08:47:51;0.70;99.90
40516;DHT22;26216;53.724;9.898;2023-02-07T08:50:17;0.80;99.90
40516;DHT22;26216;53.724;9.898;2023-02-07T08:52:43;0.90;99.90
40516;DHT22;26216;53.724;9.898;2023-02-07T08:55:10;0.90;99.90
40516;DHT22;26216;53.724;9.898;2023-02-07T08:57:37;1.00;99.90
40516;DHT22;26216;53.724;9.898;2023-02-07T09:00:05;1.10;99.90
40516;DHT22;26216;53.724;9.898;2023-02-07T09:02:31;1.10;99.90
40516;DHT22;26216;53.724;9.898;2023-02-07T09:04:57;1.20;99.90
40516;DHT22;26216;53.724;9.898;2023-02-07T09:07:23;1.20;99.90
40516;DHT22;26216;53.724;9.898;2023-02-07T09:09:49;1.30;99.90
40516;DHT22;26216;53.724;9.898;2023-02-07T09:12:15;1.40;99.90
40516;DHT22;26216;53.724;9.898;2023-02-07T09:14:41;1.40;99.90
40516;DHT22;26216;53.724;9.898;2023-02-07T09:17:07;1.50;99.90
40516;DHT22;26216;53.724;9.898;2023-02-07T09:19:34;1.50;99.90
40516;DHT22;26216;53.724;9.898;2023-02-07T09:22:00;1.60;99.90
40516;DHT22;26216;53.724;9.898;2023-02-07T09:24:27;1.70;99.90
40516;DHT22;26216;53.724;9.898;2023-02-07T09:26:52;1.70;99.90
40516;DHT22;26216;53.724;9.898;2023-02-07T09:29:18;1.80;99.90
40516;DHT22;26216;53.724;9.898;2023-02-07T09:31:46;1.80;99.90
40516;DHT22;26216;53.724;9.898;2023-02-07T09:34:12;1.90;99.90
40516;DHT22;26216;53.724;9.898;2023-02-07T09:36:38;1.90;99.90
40516;DHT22;26216;53.724;9.898;2023-02-07T09:39:05;2.00;99.90
40516;DHT22;26216;53.724;9.898;2023-02-07T09:47:22;2.20;99.90
40516;DHT22;26216;53.724;9.898;2023-02-07T09:58:32;2.40;99.90
40516;DHT22;26216;53.724;9.898;2023-02-07T10:01:13;2.50;99.90
40516;DHT22;26216;53.724;9.898;2023-02-07T10:06:34;2.60;99.90
40516;DHT22;26216;53.724;9.898;2023-02-07T10:09:01;2.60;99.90
40516;DHT22;26216;53.724;9.898;2023-02-07T10:12:25;2.70;99.90
40516;DHT22;26216;53.724;9.898;2023-02-07T10:25:53;3.00;99.90
40516;DHT22;26216;53.724;9.898;2023-02-07T10:28:30;3.10;99.90
40516;DHT22;26216;53.724;9.898;2023-02-07T10:31:01;3.10;99.90
40516;DHT22;26216;53.724;9.898;2023-02-07T10:33:32;3.10;99.90
40516;DHT22;26216;53.724;9.898;2023-02-07T10:36:05;3.20;99.90
40516;DHT22;26216;53.724;9.898;2023-02-07T10:41:37;3.30;99.90
40516;DHT22;26216;53.724;9.898;2023-02-07T10:44:13;3.40;99.90
40516;DHT22;26216;53.724;9.898;2023-02-07T10:46:43;3.50;99.90
40516;DHT22;26216;53.724;9.898;2023-02-07T10:49:22;3.50;99.90
40516;DHT22;26216;53.724;9.898;2023-02-07T10:51:49;3.50;99.90
40516;DHT22;26216;53.724;9.898;2023-02-07T10:54:18;3.60;99.90
40516;DHT22;26216;53.724;9.898;2023-02-07T10:56:59;3.70;99.90
40516;DHT22;26216;53.724;9.898;2023-02-07T10:59:42;3.70;99.90
40516;DHT22;26216;53.724;9.898;2023-02-07T11:10:35;3.90;99.90
40516;DHT22;26216;53.724;9.898;2023-02-07T11:13:03;4.00;99.90
40516;DHT22;26216;53.724;9.898;2023-02-07T11:15:37;4.00;99.90
40516;DHT22;26216;53.724;9.898;2023-02-07T11:18:04;4.10;99.90
40516;DHT22;26216;53.724;9.898;2023-02-07T11:20:39;4.10;99.90
40516;DHT22;26216;53.724;9.898;2023-02-07T11:23:13;4.20;99.90
40516;DHT22;26216;53.724;9.898;2023-02-07T11:25:45;4.30;99.90
40516;DHT22;26216;53.724;9.898;2023-02-07T11:28:21;4.30;99.90
40516;DHT22;26216;53.724;9.898;2023-02-07T11:30:57;4.40;99.90
40516;DHT22;26216;53.724;9.898;2023-02-07T11:33:28;4.40;99.90
40516;DHT22;26216;53.724;9.898;2023-02-07T11:36:05;4.40;99.90
40516;DHT22;26216;53.724;9.898;2023-02-07T11:38:40;4.50;99.90
40516;DHT22;26216;53.724;9.898;2023-02-07T11:41:16;4.60;99.90
40516;DHT22;26216;53.724;9.898;2023-02-07T11:43:52;4.60;99.90
40516;DHT22;26216;53.724;9.898;2023-02-07T11:46:20;4.70;99.90
40516;DHT22;26216;53.724;9.898;2023-02-07T11:48:48;4.70;99.90
40516;DHT22;26216;53.724;9.898;2023-02-07T11:51:17;4.80;99.90
40516;DHT22;26216;53.724;9.898;2023-02-07T11:53:47;4.80;99.90
40516;DHT22;26216;53.724;9.898;2023-02-07T11:56:35;4.80;99.90
40516;DHT22;26216;53.724;9.898;2023-02-07T11:59:07;4.90;99.90
40516;DHT22;26216;53.724;9.898;2023-02-07T12:01:36;4.90;99.90
40516;DHT22;26216;53.724;9.898;2023-02-07T12:04:17;5.00;99.90
40516;DHT22;26216;53.724;9.898;2023-02-07T12:09:42;5.10;99.90
40516;DHT22;26216;53.724;9.898;2023-02-07T12:15:19;5.20;99.90
40516;DHT22;26216;53.724;9.898;2023-02-07T12:17:59;5.20;99.90
40516;DHT22;26216;53.724;9.898;2023-02-07T12:20:47;5.20;99.90
40516;DHT22;26216;53.724;9.898;2023-02-07T12:25:59;5.30;99.90
40516;DHT22;26216;53.724;9.898;2023-02-07T12:28:28;5.40;99.90
40516;DHT22;26216;53.724;9.898;2023-02-07T12:30:57;5.40;99.90
40516;DHT22;26216;53.724;9.898;2023-02-07T12:36:13;5.40;99.90
40516;DHT22;26216;53.724;9.898;2023-02-07T12:38:46;5.40;99.90
40516;DHT22;26216;53.724;9.898;2023-02-07T12:47:06;5.50;99.90
40516;DHT22;26216;53.724;9.898;2023-02-07T12:49:55;5.60;99.90
40516;DHT22;26216;53.724;9.898;2023-02-07T12:52:30;5.60;99.70
40516;DHT22;26216;53.724;9.898;2023-02-07T12:55:29;5.60;99.90
40516;DHT22;26216;53.724;9.898;2023-02-07T13:09:45;5.70;99.90
40516;DHT22;26216;53.724;9.898;2023-02-07T13:12:16;5.80;99.90
40516;DHT22;26216;53.724;9.898;2023-02-07T13:17:50;5.80;99.70
40516;DHT22;26216;53.724;9.898;2023-02-07T13:23:03;5.90;99.80
40516;DHT22;26216;53.724;9.898;2023-02-07T13:25:42;5.90;99.90
40516;DHT22;26216;53.724;9.898;2023-02-07T13:28:23;6.00;99.80
40516;DHT22;26216;53.724;9.898;2023-02-07T13:30:55;6.00;99.90
40516;DHT22;26216;53.724;9.898;2023-02-07T13:33:40;6.00;99.90
40516;DHT22;26216;53.724;9.898;2023-02-07T13:39:19;6.10;99.70
40516;DHT22;26216;53.724;9.898;2023-02-07T13:42:08;6.10;99.30
40516;DHT22;26216;53.724;9.898;2023-02-07T13:44:55;6.10;99.40
40516;DHT22;26216;53.724;9.898;2023-02-07T13:57:57;6.20;99.10
40516;DHT22;26216;53.724;9.898;2023-02-07T14:03:58;6.20;99.00
40516;DHT22;26216;53.724;9.898;2023-02-07T14:06:27;6.20;98.60
40516;DHT22;26216;53.724;9.898;2023-02-07T14:09:05;6.20;98.70
40516;DHT22;26216;53.724;9.898;2023-02-07T14:14:25;6.20;98.70
40516;DHT22;26216;53.724;9.898;2023-02-07T14:16:55;6.20;98.70
40516;DHT22;26216;53.724;9.898;2023-02-07T14:22:18;6.20;98.70
40516;DHT22;26216;53.724;9.898;2023-02-07T14:27:33;6.20;98.70
40516;DHT22;26216;53.724;9.898;2023-02-07T14:32:29;6.10;98.50
40516;DHT22;26216;53.724;9.898;2023-02-07T14:35:04;6.10;98.60
40516;DHT22;26216;53.724;9.898;2023-02-07T14:37:40;6.10;98.60
40516;DHT22;26216;53.724;9.898;2023-02-07T14:40:19;6.10;98.70
40516;DHT22;26216;53.724;9.898;2023-02-07T14:42:54;6.10;98.70
40516;DHT22;26216;53.724;9.898;2023-02-07T14:45:22;6.10;98.70
40516;DHT22;26216;53.724;9.898;2023-02-07T14:47:49;6.10;98.70
40516;DHT22;26216;53.724;9.898;2023-02-07T14:50:27;6.00;98.70
40516;DHT22;26216;53.724;9.898;2023-02-07T14:53:01;6.00;98.70
40516;DHT22;26216;53.724;9.898;2023-02-07T14:55:47;6.00;98.60
40516;DHT22;26216;53.724;9.898;2023-02-07T14:58:35;6.00;98.50
40516;DHT22;26216;53.724;9.898;2023-02-07T15:01:15;6.00;98.50
40516;DHT22;26216;53.724;9.898;2023-02-07T15:03:41;5.90;98.50
40516;DHT22;26216;53.724;9.898;2023-02-07T15:06:19;6.00;98.50
40516;DHT22;26216;53.724;9.898;2023-02-07T15:08:58;5.90;98.40
40516;DHT22;26216;53.724;9.898;2023-02-07T15:11:26;5.90;98.50
40516;DHT22;26216;53.724;9.898;2023-02-07T15:13:56;5.90;98.50
40516;DHT22;26216;53.724;9.898;2023-02-07T15:16:33;5.80;98.50
40516;DHT22;26216;53.724;9.898;2023-02-07T15:19:25;5.80;98.50
40516;DHT22;26216;53.724;9.898;2023-02-07T15:21:54;5.80;98.10
40516;DHT22;26216;53.724;9.898;2023-02-07T15:24:40;5.70;98.20
40516;DHT22;26216;53.724;9.898;2023-02-07T15:27:19;5.70;98.30
40516;DHT22;26216;53.724;9.898;2023-02-07T15:29:55;5.70;98.30
40516;DHT22;26216;53.724;9.898;2023-02-07T15:32:28;5.60;98.30
40516;DHT22;26216;53.724;9.898;2023-02-07T15:34:57;5.60;98.30
40516;DHT22;26216;53.724;9.898;2023-02-07T15:37:24;5.50;98.30
40516;DHT22;26216;53.724;9.898;2023-02-07T15:39:55;5.50;98.10
40516;DHT22;26216;53.724;9.898;2023-02-07T15:42:22;5.40;98.20
40516;DHT22;26216;53.724;9.898;2023-02-07T15:44:53;5.40;98.30
40516;DHT22;26216;53.724;9.898;2023-02-07T15:50:19;5.40;98.50
40516;DHT22;26216;53.724;9.898;2023-02-07T15:52:58;5.30;98.30
40516;DHT22;26216;53.724;9.898;2023-02-07T15:55:45;5.20;98.40
40516;DHT22;26216;53.724;9.898;2023-02-07T15:58:27;5.20;98.40
40516;DHT22;26216;53.724;9.898;2023-02-07T16:01:04;5.20;98.40
40516;DHT22;26216;53.724;9.898;2023-02-07T16:03:35;5.10;98.40
40516;DHT22;26216;53.724;9.898;2023-02-07T16:08:52;5.00;98.50
40516;DHT22;26216;53.724;9.898;2023-02-07T16:16:52;4.90;98.50
40516;DHT22;26216;53.724;9.898;2023-02-07T16:19:29;4.80;98.50
40516;DHT22;26216;53.724;9.898;2023-02-07T16:22:03;4.70;98.50
40516;DHT22;26216;53.724;9.898;2023-02-07T16:24:34;4.70;98.50
40516;DHT22;26216;53.724;9.898;2023-02-07T16:27:05;4.60;98.50
40516;DHT22;26216;53.724;9.898;2023-02-07T16:29:33;4.60;98.50
40516;DHT22;26216;53.724;9.898;2023-02-07T16:31:59;4.50;98.50
40516;DHT22;26216;53.724;9.898;2023-02-07T16:34:25;4.40;98.60
40516;DHT22;26216;53.724;9.898;2023-02-07T16:36:53;4.40;98.60
40516;DHT22;26216;53.724;9.898;2023-02-07T16:39:21;4.30;98.70
40516;DHT22;26216;53.724;9.898;2023-02-07T16:41:55;4.30;98.60
40516;DHT22;26216;53.724;9.898;2023-02-07T16:44:23;4.20;98.50
40516;DHT22;26216;53.724;9.898;2023-02-07T16:46:50;4.10;98.50
40516;DHT22;26216;53.724;9.898;2023-02-07T16:49:23;4.10;98.50
40516;DHT22;26216;53.724;9.898;2023-02-07T16:51:49;4.00;98.50
40516;DHT22;26216;53.724;9.898;2023-02-07T16:54:16;4.00;98.60
40516;DHT22;26216;53.724;9.898;2023-02-07T16:56:44;3.90;98.60
40516;DHT22;26216;53.724;9.898;2023-02-07T16:59:14;3.90;98.70
40516;DHT22;26216;53.724;9.898;2023-02-07T17:01:40;3.80;98.70
40516;DHT22;26216;53.724;9.898;2023-02-07T17:04:06;3.80;98.70
40516;DHT22;26216;53.724;9.898;2023-02-07T17:06:32;3.80;98.80
40516;DHT22;26216;53.724;9.898;2023-02-07T17:08:58;3.70;98.80
40516;DHT22;26216;53.724;9.898;2023-02-07T17:11:24;3.70;98.80
40516;DHT22;26216;53.724;9.898;2023-02-07T17:13:57;3.60;98.80
40516;DHT22;26216;53.724;9.898;2023-02-07T17:16:25;3.60;98.90
40516;DHT22;26216;53.724;9.898;2023-02-07T17:18:52;3.60;98.90
40516;DHT22;26216;53.724;9.898;2023-02-07T17:21:18;3.50;98.90
40516;DHT22;26216;53.724;9.898;2023-02-07T17:23:47;3.50;98.90
40516;DHT22;26216;53.724;9.898;2023-02-07T17:26:29;3.50;98.90
40516;DHT22;26216;53.724;9.898;2023-02-07T17:28:57;3.40;98.80
40516;DHT22;26216;53.724;9.898;2023-02-07T17:31:23;3.40;98.80
40516;DHT22;26216;53.724;9.898;2023-02-07T17:33:49;3.30;98.90
40516;DHT22;26216;53.724;9.898;2023-02-07T17:36:18;3.20;98.90
40516;DHT22;26216;53.724;9.898;2023-02-07T17:38:45;3.20;99.00
40516;DHT22;26216;53.724;9.898;2023-02-07T17:41:12;3.20;99.00
40516;DHT22;26216;53.724;9.898;2023-02-07T17:43:39;3.10;99.00
40516;DHT22;26216;53.724;9.898;2023-02-07T17:46:23;3.10;99.10
40516;DHT22;26216;53.724;9.898;2023-02-07T17:48:50;3.10;99.10
40516;DHT22;26216;53.724;9.898;2023-02-07T17:51:18;3.10;99.10
40516;DHT22;26216;53.724;9.898;2023-02-07T17:53:46;3.00;99.10
40516;DHT22;26216;53.724;9.898;2023-02-07T17:56:23;3.00;99.10
40516;DHT22;26216;53.724;9.898;2023-02-07T17:58:50;2.90;99.10
40516;DHT22;26216;53.724;9.898;2023-02-07T18:01:17;2.90;99.40
40516;DHT22;26216;53.724;9.898;2023-02-07T18:03:48;2.90;99.20
40516;DHT22;26216;53.724;9.898;2023-02-07T18:06:16;2.80;99.20
40516;DHT22;26216;53.724;9.898;2023-02-07T18:08:43;2.80;99.20
40516;DHT22;26216;53.724;9.898;2023-02-07T18:11:10;2.80;99.30
40516;DHT22;26216;53.724;9.898;2023-02-07T18:13:44;2.80;99.30
40516;DHT22;26216;53.724;9.898;2023-02-07T18:16:16;2.70;99.30
40516;DHT22;26216;53.724;9.898;2023-02-07T18:18:42;2.70;99.30
40516;DHT22;26216;53.724;9.898;2023-02-07T18:21:08;2.70;99.30